sensor_id;sensor_type;location;lat;lon;timestamp;temperature;humidity
57390;DHT22;43217;52.694;6.214;2023-05-10T00:00:34;13.50;99.90
57390;DHT22;43217;52.694;6.214;2023-05-10T00:03:00;13.50;99.90
57390;DHT22;43217;52.694;6.214;2023-05-10T00:05:25;13.50;99.90
57390;DHT22;43217;52.694;6.214;2023-05-10T00:07:51;13.40;99.90
57390;DHT22;43217;52.694;6.214;2023-05-10T00:10:17;13.40;99.90
57390;DHT22;43217;52.694;6.214;2023-05-10T00:12:42;13.50;99.90
57390;DHT22;43217;52.694;6.214;2023-05-10T00:15:08;13.50;99.90
57390;DHT22;43217;52.694;6.214;2023-05-10T00:17:34;13.50;99.90
57390;DHT22;43217;52.694;6.214;2023-05-10T00:20:00;13.50;99.90
57390;DHT22;43217;52.694;6.214;2023-05-10T00:22:26;13.50;99.90
57390;DHT22;43217;52.694;6.214;2023-05-10T00:24:52;13.50;99.90
57390;DHT22;43217;52.694;6.214;2023-05-10T00:27:17;13.50;99.90
57390;DHT22;43217;52.694;6.214;2023-05-10T00:29:43;13.50;99.90
57390;DHT22;43217;52.694;6.214;2023-05-10T00:32:08;13.50;99.90
57390;DHT22;43217;52.694;6.214;2023-05-10T00:34:34;13.50;99.90
57390;DHT22;43217;52.694;6.214;2023-05-10T00:37:00;13.50;99.90
57390;DHT22;43217;52.694;6.214;2023-05-10T00:39:25;13.50;99.90
57390;DHT22;43217;52.694;6.214;2023-05-10T00:41:52;13.50;99.90
57390;DHT22;43217;52.694;6.214;2023-05-10T00:44:31;13.50;99.90
57390;DHT22;43217;52.694;6.214;2023-05-10T00:46:57;13.50;99.90
57390;DHT22;43217;52.694;6.214;2023-05-10T00:49:28;13.50;99.90
57390;DHT22;43217;52.694;6.214;2023-05-10T00:51:54;13.50;99.90
57390;DHT22;43217;52.694;6.214;2023-05-10T00:54:26;13.50;99.90
57390;DHT22;43217;52.694;6.214;2023-05-10T00:56:52;13.50;99.90
57390;DHT22;43217;52.694;6.214;2023-05-10T00:59:18;13.40;99.90
57390;DHT22;43217;52.694;6.214;2023-05-10T01:01:47;13.50;99.90
57390;DHT22;43217;52.694;6.214;2023-05-10T01:04:13;13.50;99.90
57390;DHT22;43217;52.694;6.214;2023-05-10T01:06:40;13.40;99.90
57390;DHT22;43217;52.694;6.214;2023-05-10T01:09:06;13.50;99.90
57390;DHT22;43217;52.694;6.214;2023-05-10T01:11:37;13.40;99.90
57390;DHT22;43217;52.694;6.214;2023-05-10T01:14:03;13.40;99.90
57390;DHT22;43217;52.694;6.214;2023-05-10T01:16:33;13.40;99.90
57390;DHT22;43217;52.694;6.214;2023-05-10T01:19:01;13.40;99.90
57390;DHT22;43217;52.694;6.214;2023-05-10T01:21:40;13.40;99.90
57390;DHT22;43217;52.694;6.214;2023-05-10T01:27:12;13.40;99.90
57390;DHT22;43217;52.694;6.214;2023-05-10T01:35:00;13.40;99.90
57390;DHT22;43217;52.694;6.214;2023-05-10T01:38:19;13.40;99.90
57390;DHT22;43217;52.694;6.214;2023-05-10T01:40:35;13.30;99.90
57390;DHT22;43217;52.694;6.214;2023-05-10T01:43:04;13.30;99.90
57390;DHT22;43217;52.694;6.214;2023-05-10T01:45:59;13.30;99.90
57390;DHT22;43217;52.694;6.214;2023-05-10T01:48:28;13.30;99.90
57390;DHT22;43217;52.694;6.214;2023-05-10T01:50:54;13.30;99.90
57390;DHT22;43217;52.694;6.214;2023-05-10T01:53:21;13.30;99.90
57390;DHT22;43217;52.694;6.214;2023-05-10T01:55:50;13.20;99.90
57390;DHT22;43217;52.694;6.214;2023-05-10T01:58:22;13.20;99.90
57390;DHT22;43217;52.694;6.214;2023-05-10T02:00:51;13.20;99.90
57390;DHT22;43217;52.694;6.214;2023-05-10T02:03:20;13.20;99.90
57390;DHT22;43217;52.694;6.214;2023-05-10T02:05:48;13.20;99.90
57390;DHT22;43217;52.694;6.214;2023-05-10T02:08:16;13.20;99.90
57390;DHT22;43217;52.694;6.214;2023-05-10T02:10:44;13.20;99.90
57390;DHT22;43217;52.694;6.214;2023-05-10T02:13:10;13.20;99.90
57390;DHT22;43217;52.694;6.214;2023-05-10T02:15:37;13.10;99.90
57390;DHT22;43217;52.694;6.214;2023-05-10T02:18:04;13.10;99.90
57390;DHT22;43217;52.694;6.214;2023-05-10T02:20:31;13.10;99.90
57390;DHT22;43217;52.694;6.214;2023-05-10T02:22:58;13.10;99.90
57390;DHT22;43217;52.694;6.214;2023-05-10T02:25:25;13.10;99.90
57390;DHT22;43217;52.694;6.214;2023-05-10T02:27:56;13.10;99.90
57390;DHT22;43217;52.694;6.214;2023-05-10T02:30:22;13.10;99.90
57390;DHT22;43217;52.694;6.214;2023-05-10T02:32:50;13.10;99.90
57390;DHT22;43217;52.694;6.214;2023-05-10T02:35:16;13.10;99.90
57390;DHT22;43217;52.694;6.214;2023-05-10T02:37:43;13.10;99.90
57390;DHT22;43217;52.694;6.214;2023-05-10T02:40:10;13.10;99.90
57390;DHT22;43217;52.694;6.214;2023-05-10T02:42:37;13.10;99.90
57390;DHT22;43217;52.694;6.214;2023-05-10T02:45:07;13.10;99.90
57390;DHT22;43217;52.694;6.214;2023-05-10T02:47:34;13.10;99.90
57390;DHT22;43217;52.694;6.214;2023-05-10T02:50:00;13.10;99.90
57390;DHT22;43217;52.694;6.214;2023-05-10T02:52:28;13.10;99.90
57390;DHT22;43217;52.694;6.214;2023-05-10T02:54:59;13.10;99.90
57390;DHT22;43217;52.694;6.214;2023-05-10T02:57:32;13.10;99.90
57390;DHT22;43217;52.694;6.214;2023-05-10T02:59:58;13.10;99.90
57390;DHT22;43217;52.694;6.214;2023-05-10T03:02:25;13.10;99.90
57390;DHT22;43217;52.694;6.214;2023-05-10T03:04:51;13.10;99.90
57390;DHT22;43217;52.694;6.214;2023-05-10T03:07:17;13.10;99.90
57390;DHT22;43217;52.694;6.214;2023-05-10T03:09:47;13.10;99.90
57390;DHT22;43217;52.694;6.214;2023-05-10T03:12:33;13.10;99.90
57390;DHT22;43217;52.694;6.214;2023-05-10T03:15:37;13.10;99.90
57390;DHT22;43217;52.694;6.214;2023-05-10T03:18:29;13.10;99.90
57390;DHT22;43217;52.694;6.214;2023-05-10T03:21:02;13.10;99.90
57390;DHT22;43217;52.694;6.214;2023-05-10T03:23:35;13.10;99.90
57390;DHT22;43217;52.694;6.214;2023-05-10T03:26:06;13.10;99.90
57390;DHT22;43217;52.694;6.214;2023-05-10T03:28:34;13.10;99.90
57390;DHT22;43217;52.694;6.214;2023-05-10T03:31:01;13.10;99.90
57390;DHT22;43217;52.694;6.214;2023-05-10T03:33:27;13.00;99.90
57390;DHT22;43217;52.694;6.214;2023-05-10T03:35:54;13.10;99.90
57390;DHT22;43217;52.694;6.214;2023-05-10T03:38:19;13.10;99.90
57390;DHT22;43217;52.694;6.214;2023-05-10T03:40:45;13.10;99.90
57390;DHT22;43217;52.694;6.214;2023-05-10T03:43:10;13.10;99.90
57390;DHT22;43217;52.694;6.214;2023-05-10T03:45:36;13.10;99.90
57390;DHT22;43217;52.694;6.214;2023-05-10T03:48:02;13.10;99.90
57390;DHT22;43217;52.694;6.214;2023-05-10T03:50:28;13.10;99.90
57390;DHT22;43217;52.694;6.214;2023-05-10T03:52:53;13.00;99.90
57390;DHT22;43217;52.694;6.214;2023-05-10T03:55:19;13.00;99.90
57390;DHT22;43217;52.694;6.214;2023-05-10T03:57:45;13.00;99.90
57390;DHT22;43217;52.694;6.214;2023-05-10T04:00:11;13.00;99.90
57390;DHT22;43217;52.694;6.214;2023-05-10T04:02:37;13.00;99.90
57390;DHT22;43217;52.694;6.214;2023-05-10T04:05:03;13.00;99.90
57390;DHT22;43217;52.694;6.214;2023-05-10T04:07:28;13.00;99.90
57390;DHT22;43217;52.694;6.214;2023-05-10T04:09:54;13.00;99.90
57390;DHT22;43217;52.694;6.214;2023-05-10T04:12:20;13.00;99.90
57390;DHT22;43217;52.694;6.214;2023-05-10T04:14:46;13.00;99.90
57390;DHT22;43217;52.694;6.214;2023-05-10T04:17:11;13.00;99.90
57390;DHT22;43217;52.694;6.214;2023-05-10T04:19:37;13.00;99.90
57390;DHT22;43217;52.694;6.214;2023-05-10T04:22:03;13.00;99.90
57390;DHT22;43217;52.694;6.214;2023-05-10T04:24:29;13.00;99.90
57390;DHT22;43217;52.694;6.214;2023-05-10T04:26:55;13.00;99.90
57390;DHT22;43217;52.694;6.214;2023-05-10T04:29:20;13.00;99.90
57390;DHT22;43217;52.694;6.214;2023-05-10T04:31:46;13.00;99.90
57390;DHT22;43217;52.694;6.214;2023-05-10T04:34:12;12.90;99.90
57390;DHT22;43217;52.694;6.214;2023-05-10T04:36:40;12.90;99.90
57390;DHT22;43217;52.694;6.214;2023-05-10T04:39:05;13.00;99.90
57390;DHT22;43217;52.694;6.214;2023-05-10T04:41:31;13.00;99.90
57390;DHT22;43217;52.694;6.214;2023-05-10T04:44:00;13.00;99.90
57390;DHT22;43217;52.694;6.214;2023-05-10T04:46:25;12.90;99.90
57390;DHT22;43217;52.694;6.214;2023-05-10T04:48:51;13.00;99.90
57390;DHT22;43217;52.694;6.214;2023-05-10T04:51:17;12.90;99.90
57390;DHT22;43217;52.694;6.214;2023-05-10T04:53:42;13.00;99.90
57390;DHT22;43217;52.694;6.214;2023-05-10T04:56:08;13.00;99.90
57390;DHT22;43217;52.694;6.214;2023-05-10T04:58:33;13.00;99.90
57390;DHT22;43217;52.694;6.214;2023-05-10T05:01:06;13.10;99.90
57390;DHT22;43217;52.694;6.214;2023-05-10T05:03:33;13.00;99.90
57390;DHT22;43217;52.694;6.214;2023-05-10T05:05:58;13.10;99.90
57390;DHT22;43217;52.694;6.214;2023-05-10T05:08:24;13.10;99.90
57390;DHT22;43217;52.694;6.214;2023-05-10T05:10:50;13.10;99.90
57390;DHT22;43217;52.694;6.214;2023-05-10T05:13:15;13.10;99.90
57390;DHT22;43217;52.694;6.214;2023-05-10T05:15:41;13.10;99.90
57390;DHT22;43217;52.694;6.214;2023-05-10T05:18:07;13.20;99.90
57390;DHT22;43217;52.694;6.214;2023-05-10T05:20:33;13.20;99.90
57390;DHT22;43217;52.694;6.214;2023-05-10T05:23:01;13.10;99.90
57390;DHT22;43217;52.694;6.214;2023-05-10T05:25:27;13.20;99.90
57390;DHT22;43217;52.694;6.214;2023-05-10T05:27:55;13.10;99.90
57390;DHT22;43217;52.694;6.214;2023-05-10T05:30:21;13.10;99.90
57390;DHT22;43217;52.694;6.214;2023-05-10T05:32:46;13.10;99.90
57390;DHT22;43217;52.694;6.214;2023-05-10T05:35:15;13.10;99.90
57390;DHT22;43217;52.694;6.214;2023-05-10T05:37:40;13.20;99.90
57390;DHT22;43217;52.694;6.214;2023-05-10T05:40:06;13.30;99.90
57390;DHT22;43217;52.694;6.214;2023-05-10T05:42:32;13.20;99.90
57390;DHT22;43217;52.694;6.214;2023-05-10T05:44:58;13.30;99.90
57390;DHT22;43217;52.694;6.214;2023-05-10T05:47:23;13.30;99.90
57390;DHT22;43217;52.694;6.214;2023-05-10T05:49:49;13.40;99.90
57390;DHT22;43217;52.694;6.214;2023-05-10T05:52:15;13.40;99.90
57390;DHT22;43217;52.694;6.214;2023-05-10T05:54:40;13.40;99.90
57390;DHT22;43217;52.694;6.214;2023-05-10T05:57:06;13.40;99.90
57390;DHT22;43217;52.694;6.214;2023-05-10T05:59:32;13.40;99.90
57390;DHT22;43217;52.694;6.214;2023-05-10T06:01:58;13.40;99.90
57390;DHT22;43217;52.694;6.214;2023-05-10T06:04:24;13.40;99.90
57390;DHT22;43217;52.694;6.214;2023-05-10T06:06:49;13.40;99.90
57390;DHT22;43217;52.694;6.214;2023-05-10T06:09:15;13.50;99.90
57390;DHT22;43217;52.694;6.214;2023-05-10T06:11:41;13.50;99.90
57390;DHT22;43217;52.694;6.214;2023-05-10T06:14:06;13.50;99.90
57390;DHT22;43217;52.694;6.214;2023-05-10T06:16:34;13.40;99.90
57390;DHT22;43217;52.694;6.214;2023-05-10T06:18:59;13.50;99.90
57390;DHT22;43217;52.694;6.214;2023-05-10T06:21:25;13.40;99.90
57390;DHT22;43217;52.694;6.214;2023-05-10T06:23:51;13.50;99.90
57390;DHT22;43217;52.694;6.214;2023-05-10T06:26:17;13.50;99.90
57390;DHT22;43217;52.694;6.214;2023-05-10T06:28:42;13.50;99.90
57390;DHT22;43217;52.694;6.214;2023-05-10T06:31:08;13.60;99.90
57390;DHT22;43217;52.694;6.214;2023-05-10T06:33:34;13.60;99.90
57390;DHT22;43217;52.694;6.214;2023-05-10T06:36:00;13.70;99.90
57390;DHT22;43217;52.694;6.214;2023-05-10T06:38:26;13.70;99.90
57390;DHT22;43217;52.694;6.214;2023-05-10T06:40:51;13.80;99.90
57390;DHT22;43217;52.694;6.214;2023-05-10T06:43:17;13.80;99.90
57390;DHT22;43217;52.694;6.214;2023-05-10T06:45:43;13.80;99.90
57390;DHT22;43217;52.694;6.214;2023-05-10T06:48:08;13.90;99.90
57390;DHT22;43217;52.694;6.214;2023-05-10T06:50:34;13.90;99.90
57390;DHT22;43217;52.694;6.214;2023-05-10T06:53:01;13.90;99.90
57390;DHT22;43217;52.694;6.214;2023-05-10T06:55:29;13.90;99.90
57390;DHT22;43217;52.694;6.214;2023-05-10T06:57:55;13.90;99.90
57390;DHT22;43217;52.694;6.214;2023-05-10T07:00:21;13.90;99.90
57390;DHT22;43217;52.694;6.214;2023-05-10T07:02:47;13.90;99.90
57390;DHT22;43217;52.694;6.214;2023-05-10T07:05:13;13.90;99.90
57390;DHT22;43217;52.694;6.214;2023-05-10T07:07:42;13.90;99.90
57390;DHT22;43217;52.694;6.214;2023-05-10T07:10:08;14.00;99.90
57390;DHT22;43217;52.694;6.214;2023-05-10T07:12:34;14.00;99.90
57390;DHT22;43217;52.694;6.214;2023-05-10T07:15:00;14.00;99.90
57390;DHT22;43217;52.694;6.214;2023-05-10T07:17:25;14.00;99.90
57390;DHT22;43217;52.694;6.214;2023-05-10T07:19:51;14.00;99.90
57390;DHT22;43217;52.694;6.214;2023-05-10T07:22:17;14.00;99.90
57390;DHT22;43217;52.694;6.214;2023-05-10T07:24:43;14.00;99.90
57390;DHT22;43217;52.694;6.214;2023-05-10T07:27:09;14.10;99.90
57390;DHT22;43217;52.694;6.214;2023-05-10T07:29:35;14.10;99.90
57390;DHT22;43217;52.694;6.214;2023-05-10T07:32:01;14.30;99.90
57390;DHT22;43217;52.694;6.214;2023-05-10T07:34:27;14.40;99.90
57390;DHT22;43217;52.694;6.214;2023-05-10T07:36:53;14.50;99.90
57390;DHT22;43217;52.694;6.214;2023-05-10T07:39:19;14.60;99.90
57390;DHT22;43217;52.694;6.214;2023-05-10T07:41:45;14.70;99.90
57390;DHT22;43217;52.694;6.214;2023-05-10T07:44:11;14.80;99.90
57390;DHT22;43217;52.694;6.214;2023-05-10T07:46:37;14.90;99.90
57390;DHT22;43217;52.694;6.214;2023-05-10T07:49:03;15.00;99.90
57390;DHT22;43217;52.694;6.214;2023-05-10T07:51:29;15.00;99.90
57390;DHT22;43217;52.694;6.214;2023-05-10T07:53:55;15.00;99.90
57390;DHT22;43217;52.694;6.214;2023-05-10T07:56:28;15.00;99.90
57390;DHT22;43217;52.694;6.214;2023-05-10T07:59:01;15.00;99.90
57390;DHT22;43217;52.694;6.214;2023-05-10T08:01:31;15.00;99.90
57390;DHT22;43217;52.694;6.214;2023-05-10T08:04:00;15.00;99.90
57390;DHT22;43217;52.694;6.214;2023-05-10T08:06:27;15.00;99.90
57390;DHT22;43217;52.694;6.214;2023-05-10T08:08:55;15.00;99.90
57390;DHT22;43217;52.694;6.214;2023-05-10T08:11:21;15.00;99.90
57390;DHT22;43217;52.694;6.214;2023-05-10T08:13:48;15.00;99.90
57390;DHT22;43217;52.694;6.214;2023-05-10T08:16:14;15.10;99.90
57390;DHT22;43217;52.694;6.214;2023-05-10T08:18:40;15.20;99.90
57390;DHT22;43217;52.694;6.214;2023-05-10T08:21:07;15.20;99.90
57390;DHT22;43217;52.694;6.214;2023-05-10T08:23:33;15.20;99.90
57390;DHT22;43217;52.694;6.214;2023-05-10T08:25:59;15.30;99.90
57390;DHT22;43217;52.694;6.214;2023-05-10T08:28:25;15.30;99.90
57390;DHT22;43217;52.694;6.214;2023-05-10T08:30:51;15.30;99.90
57390;DHT22;43217;52.694;6.214;2023-05-10T08:33:20;15.40;99.90
57390;DHT22;43217;52.694;6.214;2023-05-10T08:35:45;15.50;99.90
57390;DHT22;43217;52.694;6.214;2023-05-10T08:38:11;15.60;99.90
57390;DHT22;43217;52.694;6.214;2023-05-10T08:40:39;15.70;99.90
57390;DHT22;43217;52.694;6.214;2023-05-10T08:43:08;15.70;99.90
57390;DHT22;43217;52.694;6.214;2023-05-10T08:45:38;15.80;99.90
57390;DHT22;43217;52.694;6.214;2023-05-10T08:48:06;15.80;99.90
57390;DHT22;43217;52.694;6.214;2023-05-10T08:50:37;15.90;99.90
57390;DHT22;43217;52.694;6.214;2023-05-10T08:53:13;16.00;99.90
57390;DHT22;43217;52.694;6.214;2023-05-10T08:55:40;16.20;99.90
57390;DHT22;43217;52.694;6.214;2023-05-10T08:58:08;16.20;99.90
57390;DHT22;43217;52.694;6.214;2023-05-10T09:00:34;16.20;99.90
57390;DHT22;43217;52.694;6.214;2023-05-10T09:03:02;16.20;99.90
57390;DHT22;43217;52.694;6.214;2023-05-10T09:05:28;16.30;99.90
57390;DHT22;43217;52.694;6.214;2023-05-10T09:07:54;16.50;99.90
57390;DHT22;43217;52.694;6.214;2023-05-10T09:10:20;16.60;99.90
57390;DHT22;43217;52.694;6.214;2023-05-10T09:12:46;16.60;99.90
57390;DHT22;43217;52.694;6.214;2023-05-10T09:15:17;16.50;99.90
57390;DHT22;43217;52.694;6.214;2023-05-10T09:17:47;16.50;99.90
57390;DHT22;43217;52.694;6.214;2023-05-10T09:20:14;16.50;99.90
57390;DHT22;43217;52.694;6.214;2023-05-10T09:22:40;16.40;99.90
57390;DHT22;43217;52.694;6.214;2023-05-10T09:27:35;16.50;99.90
57390;DHT22;43217;52.694;6.214;2023-05-10T09:30:05;16.50;99.90
57390;DHT22;43217;52.694;6.214;2023-05-10T09:32:44;16.50;99.90
57390;DHT22;43217;52.694;6.214;2023-05-10T09:35:18;16.50;99.90
57390;DHT22;43217;52.694;6.214;2023-05-10T09:37:50;16.50;99.90
57390;DHT22;43217;52.694;6.214;2023-05-10T09:40:24;16.50;99.90
57390;DHT22;43217;52.694;6.214;2023-05-10T09:43:04;16.50;99.90
57390;DHT22;43217;52.694;6.214;2023-05-10T09:45:33;16.60;99.90
57390;DHT22;43217;52.694;6.214;2023-05-10T09:48:00;16.60;99.90
57390;DHT22;43217;52.694;6.214;2023-05-10T09:50:27;16.50;99.90
57390;DHT22;43217;52.694;6.214;2023-05-10T09:52:58;16.50;99.90
57390;DHT22;43217;52.694;6.214;2023-05-10T09:55:41;16.50;99.90
57390;DHT22;43217;52.694;6.214;2023-05-10T09:58:10;16.60;99.90
57390;DHT22;43217;52.694;6.214;2023-05-10T10:00:40;16.60;99.90
57390;DHT22;43217;52.694;6.214;2023-05-10T10:03:12;16.70;99.90
57390;DHT22;43217;52.694;6.214;2023-05-10T10:05:40;16.70;99.90
57390;DHT22;43217;52.694;6.214;2023-05-10T10:08:07;16.70;99.90
57390;DHT22;43217;52.694;6.214;2023-05-10T10:10:33;16.80;99.90
57390;DHT22;43217;52.694;6.214;2023-05-10T10:12:59;16.80;99.90
57390;DHT22;43217;52.694;6.214;2023-05-10T10:15:25;16.70;99.90
57390;DHT22;43217;52.694;6.214;2023-05-10T10:17:52;16.70;99.90
57390;DHT22;43217;52.694;6.214;2023-05-10T10:20:19;16.60;99.90
57390;DHT22;43217;52.694;6.214;2023-05-10T10:22:46;16.60;99.90
57390;DHT22;43217;52.694;6.214;2023-05-10T10:25:18;16.60;99.90
57390;DHT22;43217;52.694;6.214;2023-05-10T10:33:24;16.50;99.90
57390;DHT22;43217;52.694;6.214;2023-05-10T10:35:59;16.50;99.90
57390;DHT22;43217;52.694;6.214;2023-05-10T10:38:25;16.50;99.90
57390;DHT22;43217;52.694;6.214;2023-05-10T10:41:11;16.50;99.90
57390;DHT22;43217;52.694;6.214;2023-05-10T10:47:23;16.70;99.90
57390;DHT22;43217;52.694;6.214;2023-05-10T10:52:37;16.80;99.90
57390;DHT22;43217;52.694;6.214;2023-05-10T10:55:12;16.80;99.90
57390;DHT22;43217;52.694;6.214;2023-05-10T11:00:23;16.80;99.90
57390;DHT22;43217;52.694;6.214;2023-05-10T11:03:05;16.80;99.90
57390;DHT22;43217;52.694;6.214;2023-05-10T11:08:15;16.60;99.90
57390;DHT22;43217;52.694;6.214;2023-05-10T11:10:54;16.50;99.90
57390;DHT22;43217;52.694;6.214;2023-05-10T11:15:57;16.30;99.90
57390;DHT22;43217;52.694;6.214;2023-05-10T11:18:28;16.20;99.90
57390;DHT22;43217;52.694;6.214;2023-05-10T11:21:02;16.10;99.90
57390;DHT22;43217;52.694;6.214;2023-05-10T11:23:32;16.10;99.90
57390;DHT22;43217;52.694;6.214;2023-05-10T11:25:59;16.10;99.90
57390;DHT22;43217;52.694;6.214;2023-05-10T11:28:26;16.00;99.90
57390;DHT22;43217;52.694;6.214;2023-05-10T11:30:52;16.00;99.90
57390;DHT22;43217;52.694;6.214;2023-05-10T11:33:19;16.00;99.90
57390;DHT22;43217;52.694;6.214;2023-05-10T11:35:46;16.00;99.90
57390;DHT22;43217;52.694;6.214;2023-05-10T11:38:12;16.00;99.90
57390;DHT22;43217;52.694;6.214;2023-05-10T11:40:39;16.00;99.90
57390;DHT22;43217;52.694;6.214;2023-05-10T11:43:05;16.00;99.90
57390;DHT22;43217;52.694;6.214;2023-05-10T11:45:35;16.10;99.90
57390;DHT22;43217;52.694;6.214;2023-05-10T11:48:01;16.10;99.90
57390;DHT22;43217;52.694;6.214;2023-05-10T11:50:29;16.20;99.90
57390;DHT22;43217;52.694;6.214;2023-05-10T11:52:55;16.30;99.90
57390;DHT22;43217;52.694;6.214;2023-05-10T11:55:22;16.40;99.90
57390;DHT22;43217;52.694;6.214;2023-05-10T11:57:52;16.40;99.90
57390;DHT22;43217;52.694;6.214;2023-05-10T12:00:22;16.60;99.90
57390;DHT22;43217;52.694;6.214;2023-05-10T12:02:48;16.70;99.90
57390;DHT22;43217;52.694;6.214;2023-05-10T12:05:18;16.80;99.90
57390;DHT22;43217;52.694;6.214;2023-05-10T12:07:45;16.90;99.90
57390;DHT22;43217;52.694;6.214;2023-05-10T12:10:12;17.00;99.90
57390;DHT22;43217;52.694;6.214;2023-05-10T12:12:45;17.00;99.90
57390;DHT22;43217;52.694;6.214;2023-05-10T12:15:21;17.00;99.90
57390;DHT22;43217;52.694;6.214;2023-05-10T12:17:48;17.00;99.90
57390;DHT22;43217;52.694;6.214;2023-05-10T12:20:19;17.00;99.90
57390;DHT22;43217;52.694;6.214;2023-05-10T12:22:56;17.00;99.90
57390;DHT22;43217;52.694;6.214;2023-05-10T12:25:24;16.90;99.90
57390;DHT22;43217;52.694;6.214;2023-05-10T12:27:55;16.90;99.90
57390;DHT22;43217;52.694;6.214;2023-05-10T12:30:25;16.80;99.90
57390;DHT22;43217;52.694;6.214;2023-05-10T12:32:52;16.80;99.90
57390;DHT22;43217;52.694;6.214;2023-05-10T12:35:18;16.70;99.90
57390;DHT22;43217;52.694;6.214;2023-05-10T12:37:47;16.70;99.90
57390;DHT22;43217;52.694;6.214;2023-05-10T12:40:13;16.70;99.90
57390;DHT22;43217;52.694;6.214;2023-05-10T12:42:39;16.60;99.90
57390;DHT22;43217;52.694;6.214;2023-05-10T12:45:06;16.60;99.90
57390;DHT22;43217;52.694;6.214;2023-05-10T12:47:33;16.60;99.90
57390;DHT22;43217;52.694;6.214;2023-05-10T12:50:00;16.60;99.90
57390;DHT22;43217;52.694;6.214;2023-05-10T12:52:26;16.60;99.90
57390;DHT22;43217;52.694;6.214;2023-05-10T12:54:52;16.60;99.90
57390;DHT22;43217;52.694;6.214;2023-05-10T12:57:19;16.60;99.90
57390;DHT22;43217;52.694;6.214;2023-05-10T12:59:45;16.60;99.90
57390;DHT22;43217;52.694;6.214;2023-05-10T13:02:11;16.60;99.90
57390;DHT22;43217;52.694;6.214;2023-05-10T13:04:36;16.60;99.90
57390;DHT22;43217;52.694;6.214;2023-05-10T13:07:08;16.60;99.90
57390;DHT22;43217;52.694;6.214;2023-05-10T13:09:34;16.50;99.90
57390;DHT22;43217;52.694;6.214;2023-05-10T13:12:00;16.40;99.90
57390;DHT22;43217;52.694;6.214;2023-05-10T13:14:26;16.30;99.90
57390;DHT22;43217;52.694;6.214;2023-05-10T13:16:52;16.30;99.90
57390;DHT22;43217;52.694;6.214;2023-05-10T13:19:18;16.20;99.90
57390;DHT22;43217;52.694;6.214;2023-05-10T13:21:44;16.20;99.90
57390;DHT22;43217;52.694;6.214;2023-05-10T13:24:10;16.10;99.90
57390;DHT22;43217;52.694;6.214;2023-05-10T13:26:39;16.10;99.90
57390;DHT22;43217;52.694;6.214;2023-05-10T13:29:05;16.00;99.90
57390;DHT22;43217;52.694;6.214;2023-05-10T13:31:31;15.90;99.90
57390;DHT22;43217;52.694;6.214;2023-05-10T13:33:56;15.90;99.90
57390;DHT22;43217;52.694;6.214;2023-05-10T13:36:22;15.90;99.90
57390;DHT22;43217;52.694;6.214;2023-05-10T13:38:48;15.90;99.90
57390;DHT22;43217;52.694;6.214;2023-05-10T13:41:14;15.90;99.90
57390;DHT22;43217;52.694;6.214;2023-05-10T13:43:40;16.00;99.90
57390;DHT22;43217;52.694;6.214;2023-05-10T13:46:05;16.00;99.90
57390;DHT22;43217;52.694;6.214;2023-05-10T13:48:31;15.90;99.90
57390;DHT22;43217;52.694;6.214;2023-05-10T13:50:57;16.00;99.90
57390;DHT22;43217;52.694;6.214;2023-05-10T13:53:22;16.00;99.90
57390;DHT22;43217;52.694;6.214;2023-05-10T13:55:49;16.00;99.90
57390;DHT22;43217;52.694;6.214;2023-05-10T13:58:14;16.10;99.90
57390;DHT22;43217;52.694;6.214;2023-05-10T14:00:40;16.20;99.90
57390;DHT22;43217;52.694;6.214;2023-05-10T14:03:06;16.20;99.90
57390;DHT22;43217;52.694;6.214;2023-05-10T14:05:32;16.30;99.90
57390;DHT22;43217;52.694;6.214;2023-05-10T14:07:58;16.30;99.90
57390;DHT22;43217;52.694;6.214;2023-05-10T14:10:23;16.40;99.90
57390;DHT22;43217;52.694;6.214;2023-05-10T14:12:51;16.40;99.90
57390;DHT22;43217;52.694;6.214;2023-05-10T14:15:17;16.50;99.90
57390;DHT22;43217;52.694;6.214;2023-05-10T14:17:42;16.60;99.90
57390;DHT22;43217;52.694;6.214;2023-05-10T14:20:08;16.70;99.90
57390;DHT22;43217;52.694;6.214;2023-05-10T14:22:35;16.80;99.90
57390;DHT22;43217;52.694;6.214;2023-05-10T14:25:01;16.90;99.90
57390;DHT22;43217;52.694;6.214;2023-05-10T14:27:26;17.00;99.90
57390;DHT22;43217;52.694;6.214;2023-05-10T14:29:52;17.00;99.90
57390;DHT22;43217;52.694;6.214;2023-05-10T14:32:18;17.00;99.90
57390;DHT22;43217;52.694;6.214;2023-05-10T14:34:44;17.00;99.90
57390;DHT22;43217;52.694;6.214;2023-05-10T14:37:11;17.00;99.90
57390;DHT22;43217;52.694;6.214;2023-05-10T14:39:37;17.00;99.90
57390;DHT22;43217;52.694;6.214;2023-05-10T14:42:03;17.00;99.90
57390;DHT22;43217;52.694;6.214;2023-05-10T14:44:29;17.00;99.90
57390;DHT22;43217;52.694;6.214;2023-05-10T14:46:55;17.00;99.90
57390;DHT22;43217;52.694;6.214;2023-05-10T14:49:22;17.00;99.90
57390;DHT22;43217;52.694;6.214;2023-05-10T14:51:48;17.00;99.90
57390;DHT22;43217;52.694;6.214;2023-05-10T14:54:14;17.00;99.90
57390;DHT22;43217;52.694;6.214;2023-05-10T14:56:39;17.10;99.90
57390;DHT22;43217;52.694;6.214;2023-05-10T14:59:07;17.10;99.90
57390;DHT22;43217;52.694;6.214;2023-05-10T15:01:33;17.10;99.90
57390;DHT22;43217;52.694;6.214;2023-05-10T15:04:00;17.00;99.90
57390;DHT22;43217;52.694;6.214;2023-05-10T15:06:33;17.00;99.90
57390;DHT22;43217;52.694;6.214;2023-05-10T15:09:00;17.00;99.90
57390;DHT22;43217;52.694;6.214;2023-05-10T15:11:26;17.10;99.90
57390;DHT22;43217;52.694;6.214;2023-05-10T15:13:52;17.10;99.90
57390;DHT22;43217;52.694;6.214;2023-05-10T15:16:17;17.20;99.90
57390;DHT22;43217;52.694;6.214;2023-05-10T15:18:43;17.20;99.90
57390;DHT22;43217;52.694;6.214;2023-05-10T15:21:09;17.20;99.90
57390;DHT22;43217;52.694;6.214;2023-05-10T15:23:35;17.20;99.90
57390;DHT22;43217;52.694;6.214;2023-05-10T15:26:01;17.20;99.90
57390;DHT22;43217;52.694;6.214;2023-05-10T15:28:28;17.30;99.90
57390;DHT22;43217;52.694;6.214;2023-05-10T15:30:53;17.30;99.90
57390;DHT22;43217;52.694;6.214;2023-05-10T15:33:19;17.30;99.90
57390;DHT22;43217;52.694;6.214;2023-05-10T15:35:45;17.30;99.90
57390;DHT22;43217;52.694;6.214;2023-05-10T15:38:10;17.30;99.90
57390;DHT22;43217;52.694;6.214;2023-05-10T15:40:36;17.30;99.90
57390;DHT22;43217;52.694;6.214;2023-05-10T15:43:02;17.30;99.90
57390;DHT22;43217;52.694;6.214;2023-05-10T15:45:28;17.30;99.90
57390;DHT22;43217;52.694;6.214;2023-05-10T15:47:53;17.20;99.90
57390;DHT22;43217;52.694;6.214;2023-05-10T15:50:19;17.20;99.90
57390;DHT22;43217;52.694;6.214;2023-05-10T15:52:45;17.20;99.90
57390;DHT22;43217;52.694;6.214;2023-05-10T15:55:10;17.10;99.90
57390;DHT22;43217;52.694;6.214;2023-05-10T15:57:40;17.20;99.90
57390;DHT22;43217;52.694;6.214;2023-05-10T16:00:09;17.20;99.90
57390;DHT22;43217;52.694;6.214;2023-05-10T16:02:35;17.20;99.90